Time;durP1;ratioP1;P1;durP2;ratioP2;P2;SDS_P1;SDS_P2;PMS_P1;PMS_P2;Temp;Humidity;BMP_temperature;BMP_pressure;BME280_temperature;BME280_humidity;BME280_pressure;Samples;Min_cycle;Max_cycle;Signal;HPM_P1;HPM_P2
2023/06/22 00:00:28;;;;;;;10.67;9.63;;;;;;;21.98;87.08;98674.72;4997716;27;104379;-74
2023/06/22 00:02:56;;;;;;;11.25;10.20;;;;;;;21.73;88.50;98659.81;5006920;27;102720;-75
2023/06/22 00:05:24;;;;;;;11.82;10.48;;;;;;;21.63;89.45;98659.25;5010126;27;102748;-75
2023/06/22 00:07:52;;;;;;;11.10;10.00;;;;;;;21.91;87.56;98669.28;5012854;27;104050;-75
2023/06/22 00:10:20;;;;;;;12.13;9.50;;;;;;;22.16;86.01;98671.69;5014153;27;103253;-75
2023/06/22 00:12:48;;;;;;;9.35;8.45;;;;;;;22.40;84.28;98674.94;5009460;27;103971;-74
2023/06/22 00:15:16;;;;;;;10.32;9.23;;;;;;;22.50;84.12;98662.06;5014184;27;102724;-75
2023/06/22 00:17:46;;;;;;;8.75;8.05;;;;;;;22.63;82.75;98663.22;4993413;27;103349;-75
2023/06/22 00:20:14;;;;;;;10.17;9.27;;;;;;;22.62;82.83;98667.81;5006080;27;103293;-75
2023/06/22 00:22:44;;;;;;;9.60;8.70;;;;;;;22.67;82.83;98669.94;5013325;27;102850;-75
2023/06/22 00:25:12;;;;;;;7.10;6.50;;;;;;;23.02;80.92;98669.13;5006884;27;104025;-75
2023/06/22 00:27:40;;;;;;;8.02;7.32;;;;;;;23.25;78.89;98683.25;5011787;27;103254;-75
2023/06/22 00:30:09;;;;;;;9.50;8.63;;;;;;;23.23;79.50;98681.78;4995597;27;104867;-75
2023/06/22 00:32:37;;;;;;;8.98;8.27;;;;;;;23.23;79.71;98669.16;4998692;27;102767;-75
2023/06/22 00:35:09;;;;;;;6.03;5.60;;;;;;;23.33;78.56;98666.13;5020313;27;102885;-75
2023/06/22 00:37:36;;;;;;;7.13;6.53;;;;;;;23.42;76.81;98660.44;5004009;27;103299;-75
2023/06/22 00:40:05;;;;;;;8.97;8.10;;;;;;;23.25;78.91;98659.00;5003098;27;104314;-74
2023/06/22 00:42:35;;;;;;;5.55;5.15;;;;;;;23.42;76.98;98670.41;4996340;27;103888;-75
2023/06/22 00:45:04;;;;;;;6.03;5.53;;;;;;;23.48;77.25;98657.00;5002186;27;103335;-75
2023/06/22 00:47:32;;;;;;;8.70;7.90;;;;;;;22.97;80.93;98652.69;5026400;27;103333;-75
2023/06/22 00:50:00;;;;;;;8.60;7.90;;;;;;;23.05;79.73;98663.34;5002208;27;104331;-75
2023/06/22 00:52:32;;;;;;;8.80;8.03;;;;;;;23.17;79.97;98661.00;5021294;27;102624;-75
2023/06/22 00:55:02;;;;;;;8.93;8.10;;;;;;;23.12;79.58;98663.44;5002007;27;102922;-75
2023/06/22 00:57:31;;;;;;;7.13;6.53;;;;;;;23.23;78.36;98704.19;5015770;27;103252;-75
2023/06/22 00:59:59;;;;;;;9.85;8.85;;;;;;;23.28;78.74;98704.44;5015369;27;103206;-75
2023/06/22 01:02:27;;;;;;;9.73;8.75;;;;;;;23.25;79.25;98698.59;5007042;27;102675;-75
2023/06/22 01:04:55;;;;;;;11.82;10.00;;;;;;;22.59;82.58;98678.09;5003879;27;102791;-75
2023/06/22 01:07:36;;;;;;;8.60;7.80;;;;;;;23.11;79.84;98705.69;5022705;27;103967;-74
2023/06/22 01:10:11;;;;;;;7.50;6.90;;;;;;;23.29;78.16;98741.16;5001418;27;104046;-75
2023/06/22 01:12:43;;;;;;;9.00;8.17;;;;;;;23.35;77.80;98736.88;4999157;27;102937;-74
2023/06/22 01:15:14;;;;;;;10.33;9.20;;;;;;;23.14;79.08;98699.94;5023569;27;102850;-75
2023/06/22 01:17:45;;;;;;;7.20;6.60;;;;;;;23.25;78.75;98704.81;5019906;27;103290;-75
2023/06/22 01:20:17;;;;;;;7.00;6.33;;;;;;;23.42;77.73;98725.16;5018683;27;103321;-75
2023/06/22 01:23:01;;;;;;;7.63;6.97;;;;;;;23.40;77.46;98716.44;5018920;27;102974;-75
2023/06/22 01:25:37;;;;;;;6.80;6.20;;;;;;;23.46;76.70;98699.50;4998721;27;104297;-75
2023/06/22 01:28:15;;;;;;;6.85;6.25;;;;;;;23.45;77.35;98703.19;5020695;27;104076;-75
2023/06/22 01:30:47;;;;;;;6.97;6.28;;;;;;;23.40;76.31;98697.56;5025472;27;103427;-75
2023/06/22 01:33:16;;;;;;;10.93;9.95;;;;;;;22.89;80.23;98685.13;5003302;27;103317;-75
2023/06/22 01:35:45;;;;;;;10.68;9.63;;;;;;;22.90;79.29;98686.81;5003693;27;104595;-75
2023/06/22 01:38:13;;;;;;;9.63;8.63;;;;;;;22.85;80.96;98695.44;5017944;27;104615;-75
2023/06/22 01:40:42;;;;;;;11.20;10.10;;;;;;;22.63;82.09;98691.00;5006463;27;104165;-75
2023/06/22 01:43:10;;;;;;;11.13;10.02;;;;;;;22.10;84.92;98696.63;5001877;27;102887;-75
2023/06/22 01:45:38;;;;;;;7.30;6.60;;;;;;;22.67;81.53;98691.50;5000533;27;104074;-75
2023/06/22 01:48:08;;;;;;;6.07;5.57;;;;;;;22.94;78.83;98694.31;5029315;27;103860;-75
2023/06/22 01:50:36;;;;;;;10.90;9.55;;;;;;;22.74;79.86;98687.84;5003135;27;105488;-75
2023/06/22 01:53:06;;;;;;;12.95;10.55;;;;;;;21.92;85.63;98686.25;5019835;27;102698;-82
2023/06/22 01:55:34;;;;;;;7.17;6.53;;;;;;;22.52;82.29;98691.47;5002858;27;103159;-82
2023/06/22 01:58:02;;;;;;;5.90;5.40;;;;;;;22.83;79.54;98685.88;4995059;27;103316;-83
2023/06/22 02:00:33;;;;;;;8.07;7.35;;;;;;;22.90;79.24;98697.59;4998043;27;105148;-82
2023/06/22 02:03:06;;;;;;;8.63;7.93;;;;;;;22.87;79.56;98697.97;5007879;27;103057;-82
2023/06/22 02:05:42;;;;;;;7.70;7.00;;;;;;;22.87;79.49;98714.13;5016897;27;103587;-82
2023/06/22 02:08:16;;;;;;;6.40;5.80;;;;;;;22.90;78.76;98705.66;5014900;27;102986;-82
2023/06/22 02:10:46;;;;;;;6.90;6.40;;;;;;;22.86;78.81;98701.66;5000678;27;103962;-82
2023/06/22 02:13:15;;;;;;;6.75;6.15;;;;;;;22.79;79.81;98706.16;4998103;27;102718;-82
2023/06/22 02:15:44;;;;;;;8.07;7.28;;;;;;;22.90;78.69;98711.06;4987660;27;104575;-82
2023/06/22 02:18:13;;;;;;;11.25;10.15;;;;;;;22.32;81.96;98699.25;5006900;27;103387;-81
2023/06/22 02:20:42;;;;;;;10.70;9.70;;;;;;;21.80;86.83;98707.31;4989251;27;103259;-83
2023/06/22 02:23:10;;;;;;;10.40;9.30;;;;;;;22.00;85.59;98709.53;4991518;27;103086;-82
2023/06/22 02:25:39;;;;;;;8.07;7.28;;;;;;;22.34;83.15;98715.25;4998002;27;102888;-82
2023/06/22 02:28:07;;;;;;;6.70;6.13;;;;;;;22.56;80.26;98705.41;5003664;27;104160;-83
2023/06/22 02:30:35;;;;;;;10.18;8.95;;;;;;;22.34;81.47;98702.59;5005892;27;102703;-82
2023/06/22 02:33:03;;;;;;;10.73;9.63;;;;;;;22.24;82.35;98693.97;5007488;27;102920;-82
2023/06/22 02:35:31;;;;;;;11.33;10.33;;;;;;;21.64;86.44;98693.19;5028190;27;103880;-82
2023/06/22 02:38:02;;;;;;;10.25;9.25;;;;;;;21.80;86.01;98693.88;5009161;27;104252;-83
2023/06/22 02:40:30;;;;;;;11.30;10.10;;;;;;;21.59;86.70;98691.03;5025096;27;103206;-82
2023/06/22 02:43:01;;;;;;;10.60;9.57;;;;;;;21.56;88.12;98685.19;4997723;27;103039;-83
2023/06/22 02:45:30;;;;;;;9.23;8.43;;;;;;;21.52;88.73;98686.56;5014732;27;102982;-83
2023/06/22 02:47:58;;;;;;;10.35;9.35;;;;;;;21.79;86.14;98680.59;4994635;27;103240;-83
2023/06/22 02:50:26;;;;;;;9.35;8.45;;;;;;;21.95;84.42;98675.13;5000180;27;104453;-82
2023/06/22 02:52:55;;;;;;;9.82;8.93;;;;;;;21.94;84.65;98678.81;5012564;27;102699;-82
2023/06/22 02:55:25;;;;;;;10.40;9.50;;;;;;;21.77;85.48;98671.88;5005679;27;104070;-82
2023/06/22 02:57:57;;;;;;;10.10;9.20;;;;;;;21.87;85.19;98672.50;5022801;27;104326;-82
2023/06/22 03:00:30;;;;;;;13.45;11.07;;;;;;;21.52;86.03;98673.13;4998695;27;103189;-82
2023/06/22 03:02:59;;;;;;;10.95;9.85;;;;;;;21.64;85.63;98666.31;5016813;27;102900;-79
2023/06/22 03:05:27;;;;;;;8.35;7.55;;;;;;;21.90;84.34;98666.75;5010115;27;103083;-79
2023/06/22 03:07:56;;;;;;;6.80;6.20;;;;;;;22.05;83.17;98666.78;5004863;27;104404;-79
2023/06/22 03:10:26;;;;;;;11.25;10.05;;;;;;;21.56;85.73;98669.06;5003176;27;102727;-80
2023/06/22 03:12:55;;;;;;;12.07;10.88;;;;;;;21.22;88.89;98672.19;5020300;27;102691;-80
2023/06/22 03:15:24;;;;;;;9.87;8.97;;;;;;;21.37;88.54;98668.53;5001089;27;102948;-79
2023/06/22 03:17:55;;;;;;;12.35;11.05;;;;;;;21.23;88.43;98669.31;5006281;27;104668;-80
2023/06/22 03:20:26;;;;;;;10.88;9.88;;;;;;;21.33;88.52;98653.78;5003762;27;104477;-80
2023/06/22 03:22:55;;;;;;;12.88;11.45;;;;;;;21.05;89.90;98659.84;4995167;27;102838;-75
2023/06/22 03:25:24;;;;;;;11.82;10.63;;;;;;;20.88;91.13;98661.78;4993016;27;102811;-74
2023/06/22 03:27:53;;;;;;;11.00;9.90;;;;;;;21.15;90.17;98666.69;4996263;27;104296;-74
2023/06/22 03:30:23;;;;;;;9.85;8.95;;;;;;;21.53;87.55;98658.69;5001353;27;103674;-75
2023/06/22 03:32:54;;;;;;;7.30;6.70;;;;;;;21.77;84.59;98656.59;4999594;27;103741;-75
2023/06/22 03:35:24;;;;;;;7.97;7.28;;;;;;;21.87;84.46;98650.97;5022423;27;103882;-75
2023/06/22 03:37:52;;;;;;;8.23;7.43;;;;;;;21.99;83.70;98649.50;5016554;27;103837;-74
2023/06/22 03:40:20;;;;;;;7.82;7.05;;;;;;;21.91;84.21;98653.13;5009802;27;102743;-72
2023/06/22 03:42:49;;;;;;;9.57;8.67;;;;;;;21.89;83.27;98668.59;4995524;27;102850;-74
2023/06/22 03:45:18;;;;;;;9.07;8.27;;;;;;;21.72;85.04;98660.84;5002819;27;104026;-75
2023/06/22 03:47:47;;;;;;;10.90;9.68;;;;;;;21.33;85.16;98664.50;5003214;27;104622;-74
2023/06/22 03:50:16;;;;;;;10.40;9.40;;;;;;;20.87;90.29;98661.94;4997292;27;104185;-73
2023/06/22 03:52:44;;;;;;;9.10;8.30;;;;;;;21.06;90.26;98656.97;5020638;27;102691;-74
2023/06/22 03:55:12;;;;;;;10.88;9.77;;;;;;;20.85;91.34;98654.09;4996284;27;103034;-74
2023/06/22 03:57:40;;;;;;;11.50;10.30;;;;;;;20.92;91.08;98649.66;5011628;27;103336;-74
2023/06/22 04:00:10;;;;;;;8.68;7.90;;;;;;;21.30;89.33;98643.41;4997121;27;104126;-73
2023/06/22 04:02:43;;;;;;;8.35;7.57;;;;;;;21.53;87.09;98650.63;5013120;27;102639;-73
2023/06/22 04:05:11;;;;;;;8.05;7.30;;;;;;;21.76;84.96;98649.53;5013583;27;103718;-73
2023/06/22 04:07:41;;;;;;;6.28;5.78;;;;;;;21.95;83.48;98640.16;5009835;27;103300;-73
2023/06/22 04:10:12;;;;;;;6.07;5.57;;;;;;;22.11;82.54;98642.66;5002851;27;102687;-73
2023/06/22 04:12:41;;;;;;;10.07;9.07;;;;;;;21.93;82.76;98651.09;5015839;27;102692;-74
2023/06/22 04:15:11;;;;;;;11.20;9.40;;;;;;;21.74;84.35;98648.06;4997566;27;103853;-74
2023/06/22 04:17:39;;;;;;;12.52;10.95;;;;;;;21.05;89.75;98652.59;5012906;27;103717;-73
2023/06/22 04:20:10;;;;;;;12.80;11.50;;;;;;;21.04;89.77;98645.56;4990913;27;103950;-74
2023/06/22 04:22:37;;;;;;;10.00;9.10;;;;;;;21.31;87.96;98639.69;5009748;27;102861;-74
2023/06/22 04:25:07;;;;;;;12.52;11.27;;;;;;;20.96;90.52;98645.63;5001205;27;104468;-73
2023/06/22 04:27:36;;;;;;;11.60;10.40;;;;;;;20.80;93.70;98640.34;5025560;27;105750;-74
2023/06/22 04:30:07;;;;;;;13.57;11.73;;;;;;;20.70;93.74;98634.38;5020165;27;103235;-73
2023/06/22 04:32:35;;;;;;;12.43;11.13;;;;;;;20.80;94.37;98634.97;5017164;27;103695;-74
2023/06/22 04:35:04;;;;;;;13.65;11.93;;;;;;;20.51;95.96;98646.38;5025643;27;103798;-73
2023/06/22 04:37:33;;;;;;;12.57;11.27;;;;;;;20.75;95.48;98643.56;5020247;27;103219;-74
2023/06/22 04:40:03;;;;;;;11.93;10.73;;;;;;;21.01;93.19;98632.50;5020168;27;103297;-74
2023/06/22 04:42:31;;;;;;;13.25;11.93;;;;;;;21.03;91.60;98625.09;5024630;27;102910;-73
2023/06/22 04:44:59;;;;;;;13.57;11.68;;;;;;;20.96;92.97;98634.03;5019156;27;104156;-72
2023/06/22 04:47:29;;;;;;;14.23;12.30;;;;;;;20.87;94.15;98629.72;5003460;27;103792;-72
2023/06/22 04:49:57;;;;;;;14.43;12.27;;;;;;;20.90;94.56;98622.16;5017032;27;103325;-73
2023/06/22 04:52:25;;;;;;;12.43;11.15;;;;;;;21.07;93.50;98623.75;5025194;27;102615;-73
2023/06/22 04:54:59;;;;;;;13.23;11.87;;;;;;;21.20;91.50;98618.63;5022227;27;103352;-73
2023/06/22 04:57:32;;;;;;;14.02;11.52;;;;;;;21.03;93.34;98613.50;4994795;27;104080;-73
2023/06/22 05:00:11;;;;;;;12.07;10.98;;;;;;;21.55;90.89;98614.47;5007550;27;104111;-73
2023/06/22 05:02:39;;;;;;;12.27;10.98;;;;;;;21.76;88.80;98605.69;5027717;27;103185;-73
2023/06/22 05:05:13;;;;;;;11.43;10.33;;;;;;;22.04;87.49;98604.06;5032276;27;102631;-73
2023/06/22 05:07:43;;;;;;;11.57;10.43;;;;;;;21.83;90.21;98601.25;5030257;27;103418;-72
2023/06/22 05:10:13;;;;;;;13.00;11.70;;;;;;;21.61;90.48;98604.84;5027973;27;104749;-74
2023/06/22 05:12:42;;;;;;;12.00;10.82;;;;;;;21.87;89.62;98594.50;5009628;27;102719;-71
2023/06/22 05:15:10;;;;;;;10.88;9.88;;;;;;;22.42;86.49;98605.63;5036464;27;102863;-72
2023/06/22 05:17:42;;;;;;;13.47;11.33;;;;;;;22.12;88.14;98603.97;5003065;27;104177;-70
2023/06/22 05:20:11;;;;;;;8.10;7.38;;;;;;;22.86;84.95;98607.41;5023729;27;103356;-71
2023/06/22 05:22:40;;;;;;;9.30;8.35;;;;;;;23.15;81.61;98601.91;5027044;27;102922;-71
2023/06/22 05:25:10;;;;;;;7.85;7.15;;;;;;;23.36;81.50;98596.50;5033939;27;103584;-71
2023/06/22 05:27:53;;;;;;;8.60;7.70;;;;;;;23.60;79.01;98585.34;5004435;27;103313;-74
2023/06/22 05:30:21;;;;;;;8.57;7.72;;;;;;;23.65;77.89;98590.97;5023860;27;103228;-73
2023/06/22 05:32:52;;;;;;;14.10;10.90;;;;;;;22.46;83.00;98596.16;5014064;27;103180;-71
2023/06/22 05:35:20;;;;;;;8.98;8.18;;;;;;;23.29;80.88;98592.09;5001999;27;104529;-71
2023/06/22 05:37:48;;;;;;;10.40;8.77;;;;;;;23.76;78.92;98596.84;5024307;27;103425;-70
2023/06/22 05:40:16;;;;;;;9.55;7.80;;;;;;;23.97;77.49;98596.78;5031582;27;103197;-71
2023/06/22 05:42:44;;;;;;;12.60;11.40;;;;;;;23.14;80.03;98592.16;5024225;27;102798;-71
2023/06/22 05:45:14;;;;;;;12.33;11.13;;;;;;;22.81;82.40;98597.22;5033597;27;102798;-70
2023/06/22 05:47:42;;;;;;;12.00;10.80;;;;;;;23.17;82.11;98599.00;5014334;27;104566;-70
2023/06/22 05:50:10;;;;;;;10.52;9.52;;;;;;;23.64;79.31;98594.69;5023113;27;103453;-70
2023/06/22 05:52:40;;;;;;;9.23;8.32;;;;;;;23.60;80.51;98598.00;5025266;27;103036;-71
2023/06/22 05:55:09;;;;;;;12.05;10.88;;;;;;;23.33;79.25;98596.88;5028223;27;102710;-71
2023/06/22 05:57:36;;;;;;;11.95;10.80;;;;;;;22.92;82.34;98593.19;5025730;27;103868;-70
2023/06/22 06:00:10;;;;;;;11.60;10.40;;;;;;;22.86;83.82;98592.09;5032151;27;103194;-72
2023/06/22 06:02:43;;;;;;;10.15;8.93;;;;;;;23.64;78.71;98586.59;5016974;27;103013;-69
2023/06/22 06:05:13;;;;;;;11.23;10.23;;;;;;;23.00;81.27;98579.56;5030870;27;102871;-68
2023/06/22 06:07:41;;;;;;;11.47;10.27;;;;;;;22.85;81.43;98587.72;5023494;27;103288;-70
2023/06/22 06:10:13;;;;;;;12.43;11.23;;;;;;;23.01;80.86;98592.03;5022058;27;103391;-70
2023/06/22 06:12:40;;;;;;;12.10;10.80;;;;;;;22.91;81.42;98586.94;5026071;27;102668;-70
2023/06/22 06:15:09;;;;;;;8.68;7.88;;;;;;;23.28;81.18;98575.06;5028164;27;103858;-70
2023/06/22 06:17:47;;;;;;;11.63;10.60;;;;;;;22.90;81.93;98574.53;5029322;27;104312;-71
2023/06/22 06:20:16;;;;;;;10.55;9.45;;;;;;;23.30;81.07;98578.41;5033118;27;103498;-70
2023/06/22 06:22:44;;;;;;;9.82;8.98;;;;;;;23.61;78.91;98578.06;5025095;27;102638;-70
2023/06/22 06:25:15;;;;;;;12.30;10.50;;;;;;;23.28;80.67;98576.94;5027142;27;105771;-70
2023/06/22 06:27:44;;;;;;;8.00;7.33;;;;;;;24.23;76.81;98573.50;5034023;27;103256;-70
2023/06/22 06:30:13;;;;;;;11.55;10.45;;;;;;;23.82;78.97;98569.94;5024770;27;103183;-71
2023/06/22 06:35:40;;;;;;;12.20;10.43;;;;;;;24.31;74.90;98586.00;5023980;27;102681;-71
2023/06/22 06:38:11;;;;;;;11.17;9.40;;;;;;;24.24;75.35;98579.75;5028487;27;104083;-70
2023/06/22 06:40:40;;;;;;;10.52;9.07;;;;;;;24.31;76.40;98577.88;5025374;27;103273;-71
2023/06/22 06:43:08;;;;;;;8.88;8.13;;;;;;;24.70;74.31;98571.84;5024663;27;102994;-74
2023/06/22 06:45:38;;;;;;;11.67;9.90;;;;;;;24.87;72.94;98581.22;5028245;27;102634;-75
2023/06/22 06:48:06;;;;;;;11.55;9.57;;;;;;;25.10;72.56;98587.09;5006789;27;104013;-75
2023/06/22 06:50:34;;;;;;;8.60;7.80;;;;;;;25.29;72.60;98583.59;5023758;27;103288;-75
2023/06/22 06:53:05;;;;;;;11.93;9.00;;;;;;;24.90;74.05;98580.81;5038409;27;102813;-76
2023/06/22 06:55:33;;;;;;;9.88;8.98;;;;;;;25.05;72.84;98580.66;5015386;27;103466;-75
2023/06/22 06:58:04;;;;;;;8.88;8.02;;;;;;;25.60;71.70;98579.47;5029634;27;104028;-75
2023/06/22 07:00:31;;;;;;;10.25;8.68;;;;;;;25.85;70.36;98575.09;5009681;27;104213;-75
2023/06/22 07:03:23;;;;;;;8.93;7.75;;;;;;;26.15;68.79;98575.44;5023943;27;102621;-75
2023/06/22 07:05:55;;;;;;;9.07;7.90;;;;;;;26.30;68.49;98571.44;5010079;27;102964;-75
2023/06/22 07:08:24;;;;;;;8.40;7.60;;;;;;;26.22;67.79;98568.13;5033288;27;104060;-75
2023/06/22 07:10:53;;;;;;;9.90;8.90;;;;;;;25.40;70.55;98571.34;5011725;27;103239;-75
2023/06/22 07:13:26;;;;;;;7.95;7.13;;;;;;;26.03;69.18;98555.44;5030176;27;102900;-75
2023/06/22 07:15:54;;;;;;;7.30;6.60;;;;;;;26.67;66.71;98560.84;5027628;27;102689;-74
2023/06/22 07:18:21;;;;;;;9.85;8.60;;;;;;;25.14;70.47;98565.91;5010013;27;104245;-74
2023/06/22 07:20:50;;;;;;;8.70;7.90;;;;;;;25.15;71.32;98546.78;5034291;27;102847;-74
2023/06/22 07:23:18;;;;;;;9.32;7.97;;;;;;;25.80;69.33;98540.53;5016747;27;102629;-74
2023/06/22 07:25:47;;;;;;;8.35;7.00;;;;;;;26.15;68.35;98529.44;5021235;27;104137;-74
2023/06/22 07:28:15;;;;;;;7.90;7.10;;;;;;;26.72;66.40;98523.97;5006159;28;104906;-74
2023/06/22 07:30:43;;;;;;;7.45;6.22;;;;;;;27.20;65.66;98521.53;5032362;27;103194;-74
2023/06/22 07:33:11;;;;;;;7.18;6.43;;;;;;;27.46;61.60;98525.94;5015661;27;102834;-74
2023/06/22 07:35:39;;;;;;;7.80;6.63;;;;;;;27.46;61.65;98515.09;5007919;27;102762;-74
2023/06/22 07:38:08;;;;;;;7.47;6.32;;;;;;;27.66;62.17;98523.88;5027543;27;103705;-74
2023/06/22 07:40:37;;;;;;;7.33;5.93;;;;;;;28.05;60.75;98512.63;5034211;27;103339;-74
2023/06/22 07:43:06;;;;;;;6.60;5.80;;;;;;;28.48;59.95;98500.81;5030873;27;102842;-74
2023/06/22 07:45:35;;;;;;;6.65;6.05;;;;;;;28.55;59.77;98504.25;5019074;27;103043;-73
2023/06/22 07:48:03;;;;;;;6.53;5.93;;;;;;;28.52;58.40;98499.31;5017651;27;104114;-74
2023/06/22 07:50:31;;;;;;;6.65;6.05;;;;;;;28.90;57.94;98491.66;5033451;27;102831;-74
2023/06/22 07:52:59;;;;;;;5.97;5.38;;;;;;;29.17;58.14;98486.59;5011194;27;102855;-73
2023/06/22 07:55:27;;;;;;;6.70;5.60;;;;;;;29.24;56.96;98484.66;5014357;27;103890;-74
2023/06/22 07:57:58;;;;;;;5.87;5.30;;;;;;;29.70;55.97;98481.09;5032308;27;103990;-73
2023/06/22 08:00:27;;;;;;;7.47;5.40;;;;;;;29.66;54.93;98471.75;5036197;27;103336;-73
2023/06/22 08:02:55;;;;;;;6.90;5.40;;;;;;;30.01;53.25;98471.75;5030850;27;102736;-74
2023/06/22 08:05:23;;;;;;;6.65;5.78;;;;;;;29.63;54.70;98472.22;5017906;27;102743;-74
2023/06/22 08:07:51;;;;;;;8.27;5.60;;;;;;;29.63;54.16;98483.13;5028108;27;103319;-73
2023/06/22 08:10:19;;;;;;;6.88;5.20;;;;;;;30.36;53.33;98491.53;5031905;27;103487;-73
2023/06/22 08:12:47;;;;;;;6.00;5.40;;;;;;;31.00;50.88;98504.78;5022411;27;102786;-74
2023/06/22 08:15:21;;;;;;;8.63;5.85;;;;;;;30.78;51.66;98511.16;5033591;27;102864;-73
2023/06/22 08:17:52;;;;;;;5.28;4.78;;;;;;;31.65;49.65;98514.31;5033350;27;103225;-74
2023/06/22 08:20:20;;;;;;;7.97;5.20;;;;;;;31.50;48.10;98514.91;5034532;27;102812;-74
2023/06/22 08:22:48;;;;;;;5.70;4.90;;;;;;;32.03;47.96;98508.88;5028769;27;102638;-73
2023/06/22 08:25:16;;;;;;;8.02;5.30;;;;;;;32.16;47.71;98519.47;5025851;27;103711;-76
2023/06/22 08:27:48;;;;;;;6.70;5.25;;;;;;;31.42;49.54;98516.13;5017521;27;103282;-74
2023/06/22 08:30:17;;;;;;;8.77;5.03;;;;;;;31.27;49.65;98524.06;5031454;27;103559;-74
2023/06/22 08:32:45;;;;;;;7.70;5.25;;;;;;;31.26;49.43;98530.59;5024898;27;103594;-75
2023/06/22 08:35:14;;;;;;;6.60;4.78;;;;;;;31.67;49.14;98534.00;5033413;27;102792;-74
2023/06/22 08:37:52;;;;;;;8.53;5.70;;;;;;;31.52;49.44;98538.16;5027536;27;103248;-75
2023/06/22 08:40:20;;;;;;;6.70;5.20;;;;;;;31.64;48.93;98540.78;5025731;27;103994;-75
2023/06/22 08:42:51;;;;;;;6.63;5.20;;;;;;;31.71;48.26;98533.28;5028380;27;102948;-75
2023/06/22 08:45:22;;;;;;;5.90;5.17;;;;;;;30.94;50.33;98530.31;5032010;27;102914;-75
2023/06/22 08:47:50;;;;;;;6.57;5.53;;;;;;;31.40;48.95;98521.03;5025615;27;104112;-74
2023/06/22 08:50:21;;;;;;;7.45;5.50;;;;;;;31.18;49.61;98517.38;5027214;27;103171;-75
2023/06/22 08:52:49;;;;;;;9.23;6.15;;;;;;;31.06;48.50;98519.34;5007738;27;102673;-75
2023/06/22 08:55:19;;;;;;;6.67;5.90;;;;;;;31.94;46.62;98518.59;5006740;27;104777;-75
2023/06/22 08:57:47;;;;;;;8.32;5.80;;;;;;;32.84;45.76;98509.88;5020134;27;103281;-76
2023/06/22 09:00:17;;;;;;;10.10;5.78;;;;;;;32.55;46.85;98506.56;5023724;27;103416;-75
2023/06/22 09:02:46;;;;;;;7.10;5.50;;;;;;;32.02;48.20;98508.06;5024342;27;104352;-76
2023/06/22 09:05:14;;;;;;;9.17;6.67;;;;;;;30.99;49.73;98513.22;5012590;27;102900;-76
2023/06/22 09:07:44;;;;;;;6.70;5.17;;;;;;;32.43;46.19;98512.13;5032495;27;104035;-76
2023/06/22 09:10:12;;;;;;;5.60;4.90;;;;;;;33.08;44.79;98511.22;5008018;27;103161;-76
2023/06/22 09:12:40;;;;;;;6.87;5.50;;;;;;;33.66;45.07;98504.88;5032634;27;102855;-76
2023/06/22 09:15:09;;;;;;;8.27;6.75;;;;;;;32.98;46.18;98511.94;5009637;27;103314;-75
2023/06/22 09:17:44;;;;;;;5.63;4.97;;;;;;;33.21;44.32;98516.28;5033014;27;103255;-75
2023/06/22 09:20:12;;;;;;;8.05;5.60;;;;;;;32.22;46.38;98532.13;5013400;27;104249;-76
2023/06/22 09:22:40;;;;;;;7.10;6.00;;;;;;;32.06;47.28;98527.50;5013353;27;102940;-76
2023/06/22 09:25:10;;;;;;;6.47;5.78;;;;;;;32.76;48.05;98518.56;5019214;27;103863;-76
2023/06/22 09:27:38;;;;;;;6.95;5.78;;;;;;;34.13;45.25;98507.66;5027581;27;104017;-76
2023/06/22 09:30:07;;;;;;;7.30;4.95;;;;;;;34.41;43.61;98514.63;5015623;27;104288;-76
2023/06/22 09:32:35;;;;;;;10.43;6.53;;;;;;;32.92;44.74;98495.72;5011973;27;102742;-76
2023/06/22 09:35:06;;;;;;;7.90;6.13;;;;;;;33.68;43.35;98480.81;5036491;27;102998;-73
2023/06/22 09:37:34;;;;;;;5.63;4.78;;;;;;;35.40;41.53;98479.41;5014406;27;104223;-75
2023/06/22 09:40:06;;;;;;;7.80;6.03;;;;;;;32.48;46.28;98479.38;5013991;27;103337;-75
2023/06/22 09:42:36;;;;;;;9.50;6.67;;;;;;;32.30;46.18;98477.00;5033208;27;102660;-75
2023/06/22 09:45:04;;;;;;;6.85;5.38;;;;;;;33.85;44.57;98466.94;5031531;27;104021;-75
2023/06/22 09:47:32;;;;;;;7.32;5.75;;;;;;;34.92;43.86;98470.59;5007751;27;103480;-75
2023/06/22 09:50:00;;;;;;;6.95;5.03;;;;;;;36.10;42.96;98462.00;5034892;27;103262;-75
2023/06/22 09:52:28;;;;;;;6.70;5.50;;;;;;;35.58;43.27;98458.84;5009137;27;102840;-74
2023/06/22 09:55:20;;;;;;;5.90;5.28;;;;;;;35.01;43.31;98442.59;5027028;27;104163;-75
2023/06/22 09:57:50;;;;;;;10.60;5.65;;;;;;;34.29;43.56;98424.38;5019542;28;102784;-75
2023/06/22 10:00:19;;;;;;;6.97;5.18;;;;;;;34.59;42.82;98427.22;5018379;27;103189;-73
2023/06/22 10:02:47;;;;;;;8.60;5.25;;;;;;;35.02;43.14;98428.63;5023293;27;102590;-74
2023/06/22 10:05:15;;;;;;;4.43;4.03;;;;;;;35.92;42.39;98433.19;5032927;27;104586;-73
2023/06/22 10:07:44;;;;;;;7.97;5.22;;;;;;;35.05;42.21;98438.22;5030012;27;103309;-78
2023/06/22 10:10:15;;;;;;;9.95;5.47;;;;;;;33.97;42.43;98426.41;5035559;27;103195;-74
2023/06/22 10:12:49;;;;;;;8.35;5.28;;;;;;;33.23;44.17;98426.53;5019681;27;102757;-75
2023/06/22 10:15:19;;;;;;;6.55;4.93;;;;;;;33.86;44.56;98421.97;5009850;27;104151;-73
2023/06/22 10:17:47;;;;;;;5.70;5.07;;;;;;;34.17;43.33;98415.56;5015011;27;103019;-73
2023/06/22 10:20:17;;;;;;;6.65;5.28;;;;;;;33.37;45.08;98405.81;5027112;27;103212;-75
2023/06/22 10:22:45;;;;;;;7.72;5.35;;;;;;;33.19;45.28;98401.59;5017065;27;103013;-76
2023/06/22 10:25:14;;;;;;;9.90;5.45;;;;;;;34.04;43.37;98410.56;5027127;27;102791;-72
2023/06/22 10:27:42;;;;;;;11.55;5.78;;;;;;;34.18;43.89;98417.22;5019295;27;103709;-72
2023/06/22 10:30:12;;;;;;;13.55;6.15;;;;;;;33.59;43.24;98403.78;5037786;27;103271;-73
2023/06/22 10:32:44;;;;;;;7.18;5.25;;;;;;;34.59;43.42;98408.03;5029293;27;102595;-74
2023/06/22 10:35:15;;;;;;;4.78;4.20;;;;;;;35.23;42.35;98402.03;5024392;27;103932;-74
2023/06/22 10:37:44;;;;;;;9.82;5.68;;;;;;;34.82;42.51;98396.53;5014611;27;103528;-76
2023/06/22 10:40:13;;;;;;;7.28;5.18;;;;;;;33.53;44.10;98393.88;5031773;27;103024;-75
2023/06/22 10:42:41;;;;;;;10.45;5.63;;;;;;;32.30;46.86;98392.28;5036902;27;102796;-76
2023/06/22 10:45:10;;;;;;;9.02;5.82;;;;;;;33.54;45.11;98375.53;5016017;27;104465;-75
2023/06/22 10:47:38;;;;;;;7.63;4.80;;;;;;;34.98;43.29;98380.88;5006491;27;104044;-74
2023/06/22 10:50:14;;;;;;;8.65;5.32;;;;;;;34.65;41.25;98379.50;5031400;27;103419;-75
2023/06/22 10:52:42;;;;;;;11.25;5.85;;;;;;;34.61;42.22;98372.91;5015021;27;102710;-75
2023/06/22 10:55:11;;;;;;;10.60;6.13;;;;;;;33.13;44.72;98377.19;5034145;27;102735;-75
2023/06/22 10:57:44;;;;;;;12.70;6.05;;;;;;;33.54;44.78;98372.78;5033999;27;103666;-75
2023/06/22 11:00:13;;;;;;;7.70;5.57;;;;;;;33.63;44.79;98377.50;5037956;27;103282;-74
2023/06/22 11:02:41;;;;;;;9.55;5.57;;;;;;;34.29;43.51;98380.53;5032681;27;102603;-75
2023/06/22 11:05:11;;;;;;;12.07;5.75;;;;;;;34.21;44.01;98365.44;5043493;27;104352;-75
2023/06/22 11:07:43;;;;;;;9.07;5.45;;;;;;;34.30;42.46;98365.72;5039171;27;103426;-76
2023/06/22 11:10:16;;;;;;;7.90;5.07;;;;;;;32.88;45.11;98369.59;5017307;27;103249;-77
2023/06/22 11:12:44;;;;;;;9.40;5.53;;;;;;;33.43;44.18;98363.72;5010457;28;102655;-75
2023/06/22 11:15:14;;;;;;;8.20;4.75;;;;;;;33.67;44.95;98375.91;5029699;27;102603;-74
2023/06/22 11:17:43;;;;;;;7.15;4.97;;;;;;;33.76;43.83;98362.53;5014324;27;104595;-71
2023/06/22 11:20:13;;;;;;;7.53;5.30;;;;;;;34.14;44.62;98362.13;5033724;27;103292;-72
2023/06/22 11:22:41;;;;;;;5.80;4.93;;;;;;;34.44;43.02;98372.34;5033554;27;102689;-71
2023/06/22 11:25:11;;;;;;;7.65;4.65;;;;;;;34.60;42.27;98379.50;5019789;27;104060;-72
2023/06/22 11:27:39;;;;;;;9.57;5.07;;;;;;;34.67;41.80;98377.31;5035751;27;104066;-76
2023/06/22 11:30:09;;;;;;;6.78;4.82;;;;;;;34.86;42.29;98369.38;5034660;27;103357;-75
2023/06/22 11:32:41;;;;;;;9.05;4.90;;;;;;;34.29;43.93;98355.84;5031152;27;102628;-75
2023/06/22 11:35:15;;;;;;;8.25;6.15;;;;;;;32.83;44.41;98368.72;5012318;27;103849;-75